Alpena County Regional Airport Alpena US
ICAO: KAPN
IATA: APN
Category: Medium
Scheduled Services: Yes

Elevation: 690 ft
TransAlt. 18000 ft.

Airport Communications:
APP/DEP:128.425
ASOS:120.675
CTAF:121.35
GND:121.9
PTD:37.22
LANSING RDO:108.8
TWR:121.35
UNICOM:122.95

KAPN Zoom In..

Runways:

(A) RW 01 length 9001 ft width 150 ft
ILS 109.70 / hdg 7

(B) RW 07 length 5028 ft width 100 ft
---- / hdg 67

(C) RW 19 length 9001 ft width 150 ft
---- / hdg 187

(D) RW 25 length 5028 ft width 100 ft
---- / hdg 247

Location; KAPN
Day. 23 / Time. 15.30 Zulu
* Altimeter: 29.55
* Temperature: -05° c. -23°f.
* Wind from: 330° Speed 09 kn.
Dewpoint: -06° c.
Visibility: 1 m.
Clouds: Scattered 1000 ft.
Clouds: Overcast 1400 ft.
Conditions: Light Snow.Conditions: Mist.

KAPN 231530Z AUTO 33009KT 1 3/4SM -SN BR SCT010 OVC014 M05/M06 A2955 RMK AO2 P0003 T10501061


Wind From 330°
Speed 09 kn.

YouTube Music Video
 
jpsmedia.com for Web Design  worldairports.se 2018   terms of use